Time;durP1;ratioP1;P1;durP2;ratioP2;P2;SDS_P1;SDS_P2;PMS_P1;PMS_P2;Temp;Humidity;BMP_temperature;BMP_pressure;BME280_temperature;BME280_humidity;BME280_pressure;Samples;Min_cycle;Max_cycle;Signal;HPM_P1;HPM_P2
2022/05/21 00:02:07;;;;;;;12.78;8.38;;;;;;;18.39;91.25;99700.38;3229977;88;99162;-86
2022/05/21 00:07:14;;;;;;;13.30;9.03;;;;;;;18.37;92.38;99689.51;3249664;88;98944;-83
2022/05/21 00:12:13;;;;;;;11.83;7.47;;;;;;;18.29;93.26;99676.98;3248620;88;99200;-83
2022/05/21 00:17:14;;;;;;;13.30;8.18;;;;;;;18.26;93.14;99668.15;3251975;88;30252;-83
2022/05/21 00:22:15;;;;;;;11.25;8.30;;;;;;;18.22;93.81;99669.66;3248172;88;98722;-84
2022/05/21 00:27:16;;;;;;;12.68;9.28;;;;;;;18.20;94.05;99672.09;3346626;85;98725;-82
2022/05/21 00:32:17;;;;;;;15.50;10.58;;;;;;;18.15;94.88;99665.69;3362060;85;99319;-84
2022/05/21 00:37:18;;;;;;;14.43;10.00;;;;;;;18.05;96.26;99654.27;3348849;85;99470;-84
2022/05/21 00:42:19;;;;;;;16.25;10.95;;;;;;;17.99;96.02;99657.44;3348463;86;99064;-82
2022/05/21 00:47:20;;;;;;;14.07;10.40;;;;;;;17.94;97.42;99663.56;3341135;86;29908;-82
2022/05/21 00:52:25;;;;;;;16.15;10.75;;;;;;;17.87;97.79;99654.05;3356078;86;99032;-85
2022/05/21 00:57:34;;;;;;;14.68;10.65;;;;;;;17.86;97.89;99672.58;3337006;86;98849;-83
2022/05/21 01:02:47;;;;;;;14.05;11.35;;;;;;;17.80;99.27;99665.41;3355909;86;98979;-83
2022/05/21 01:07:50;;;;;;;14.70;10.23;;;;;;;17.76;99.35;99673.07;3332208;86;99037;-84
2022/05/21 01:12:54;;;;;;;13.08;9.68;;;;;;;17.73;100.00;99656.48;3318352;86;99379;-83
2022/05/21 01:17:55;;;;;;;12.45;9.00;;;;;;;17.69;100.00;99653.02;3332504;86;99397;-82
2022/05/21 01:22:56;;;;;;;11.18;7.65;;;;;;;17.67;100.00;99655.47;3331521;86;98774;-80
2022/05/21 01:27:58;;;;;;;11.30;7.85;;;;;;;17.65;100.00;99653.75;3348435;85;99365;-83
2022/05/21 01:33:07;;;;;;;11.45;8.15;;;;;;;17.62;100.00;99652.64;3339470;85;99425;-83
2022/05/21 01:38:09;;;;;;;11.38;8.28;;;;;;;17.58;100.00;99653.95;3363152;85;99032;-79
2022/05/21 01:48:33;;;;;;;13.40;10.15;;;;;;;17.48;100.00;99652.25;3343602;85;99148;-81
2022/05/21 01:53:36;;;;;;;12.53;9.48;;;;;;;17.46;100.00;99652.72;3240280;87;99227;-82
2022/05/21 01:58:38;;;;;;;12.75;9.25;;;;;;;17.47;100.00;99660.43;3364772;85;98803;-82
2022/05/21 02:03:40;;;;;;;14.68;9.93;;;;;;;17.48;100.00;99660.00;3338770;85;99260;-82
2022/05/21 02:08:41;;;;;;;16.40;9.65;;;;;;;17.51;100.00;99661.91;3364534;86;99076;-83
2022/05/21 02:13:42;;;;;;;13.50;9.27;;;;;;;17.52;100.00;99668.23;3348656;86;99150;-83
2022/05/21 02:18:43;;;;;;;13.60;10.13;;;;;;;17.54;100.00;99664.42;3333227;85;99109;-84
2022/05/21 02:23:44;;;;;;;16.63;11.10;;;;;;;17.58;100.00;99670.64;3345009;85;99172;-83
2022/05/21 02:28:45;;;;;;;18.45;11.60;;;;;;;17.60;100.00;99680.73;3360873;85;29872;-80
2022/05/21 02:33:46;;;;;;;14.85;11.48;;;;;;;17.59;100.00;99688.89;3277872;86;99382;-82
2022/05/21 02:44:07;;;;;;;16.80;12.35;;;;;;;17.60;100.00;99722.47;3326096;85;99302;-83
2022/05/21 02:49:08;;;;;;;11.60;7.20;;;;;;;17.56;100.00;99723.94;3342071;86;99236;-81
2022/05/21 02:54:14;;;;;;;10.67;4.57;;;;;;;17.41;100.00;99757.57;3329274;86;99481;-82
2022/05/21 02:59:14;;;;;;;8.08;4.00;;;;;;;17.09;100.00;99770.70;3359547;85;32446;-80
2022/05/21 03:04:16;;;;;;;9.58;3.40;;;;;;;16.79;97.70;99799.64;3337749;85;98808;-83
2022/05/21 03:14:36;;;;;;;4.47;2.47;;;;;;;16.27;95.60;99815.52;3321239;86;98311;-84
2022/05/21 03:19:38;;;;;;;5.13;2.87;;;;;;;16.00;94.81;99816.29;3320102;85;98716;-83
2022/05/21 03:24:39;;;;;;;8.30;2.52;;;;;;;15.76;94.75;99826.50;3339177;85;99059;-81
2022/05/21 03:29:40;;;;;;;7.40;2.63;;;;;;;15.61;94.36;99820.45;3325111;86;99061;-84
2022/05/21 03:34:41;;;;;;;5.37;2.30;;;;;;;15.49;94.09;99816.12;3341846;86;98620;-80
2022/05/21 03:39:42;;;;;;;3.57;1.93;;;;;;;15.35;93.89;99828.84;3346103;85;98605;-85
2022/05/21 03:44:45;;;;;;;4.42;2.22;;;;;;;15.21;93.93;99821.52;3326501;85;98697;-83
2022/05/21 03:49:46;;;;;;;2.95;1.77;;;;;;;15.13;93.89;99821.48;3331482;85;99922;-81
2022/05/21 03:54:47;;;;;;;4.13;1.83;;;;;;;15.03;93.93;99840.45;3336692;85;98817;-80
2022/05/21 03:59:48;;;;;;;3.40;1.80;;;;;;;14.95;93.30;99840.98;3337019;85;98657;-80
2022/05/21 04:04:49;;;;;;;3.47;1.60;;;;;;;14.91;92.34;99863.21;3332627;86;98351;-83
2022/05/21 04:09:50;;;;;;;4.43;1.57;;;;;;;14.88;91.74;99854.34;3353117;84;98840;-81
2022/05/21 04:14:51;;;;;;;4.80;1.70;;;;;;;14.86;91.16;99862.88;3337064;86;98830;-83
2022/05/21 04:19:53;;;;;;;9.20;1.80;;;;;;;14.84;91.12;99864.71;3355999;86;98731;-84
2022/05/21 04:24:54;;;;;;;1.70;1.03;;;;;;;14.85;90.82;99861.33;3324102;86;99323;-81
2022/05/21 04:29:55;;;;;;;3.60;1.50;;;;;;;14.88;90.10;99864.66;3336086;86;98743;-81
2022/05/21 04:34:56;;;;;;;6.67;1.37;;;;;;;14.88;89.23;99867.42;3311598;86;98608;-83
2022/05/21 04:39:57;;;;;;;2.73;1.07;;;;;;;14.87;88.86;99866.63;3306133;86;98566;-81
2022/05/21 04:44:58;;;;;;;2.30;0.90;;;;;;;14.87;87.82;99878.33;3342506;86;98398;-81
2022/05/21 04:49:59;;;;;;;5.23;1.40;;;;;;;14.89;86.30;99889.14;3330963;85;99009;-81
2022/05/21 04:55:07;;;;;;;11.45;1.85;;;;;;;14.89;85.57;99899.47;3329939;86;98744;-82
2022/05/21 05:00:09;;;;;;;2.70;0.95;;;;;;;14.90;84.72;99913.50;3350671;85;98865;-83
2022/05/21 05:05:10;;;;;;;4.00;1.30;;;;;;;14.89;83.49;99929.32;3330819;85;98665;-82
2022/05/21 05:10:12;;;;;;;2.47;1.30;;;;;;;14.89;82.42;99931.33;3353608;85;98544;-81
2022/05/21 05:15:13;;;;;;;1.32;0.80;;;;;;;14.87;82.62;99930.97;3345732;86;98435;-81
2022/05/21 05:20:14;;;;;;;2.77;1.10;;;;;;;14.88;81.75;99938.08;3340998;86;98687;-79
2022/05/21 05:25:15;;;;;;;6.50;1.10;;;;;;;14.86;80.57;99951.54;3322565;86;98684;-80
2022/05/21 05:30:20;;;;;;;4.00;1.10;;;;;;;14.85;80.32;99941.08;3339013;86;99071;-81
2022/05/21 05:35:22;;;;;;;5.05;2.00;;;;;;;14.84;79.68;99956.72;3344871;85;98566;-77
2022/05/21 05:40:23;;;;;;;5.05;1.30;;;;;;;14.86;79.89;99959.85;3346632;85;98923;-79
2022/05/21 05:45:24;;;;;;;5.28;1.65;;;;;;;14.88;79.63;99960.23;3327505;86;98780;-79
2022/05/21 05:50:25;;;;;;;3.23;1.47;;;;;;;14.89;79.90;99971.50;3334771;85;98669;-79
2022/05/21 05:55:26;;;;;;;2.55;1.30;;;;;;;14.90;78.84;99987.72;3355827;85;98735;-79
2022/05/21 06:00:27;;;;;;;2.92;1.60;;;;;;;14.90;78.96;99979.99;3347287;85;98731;-77
2022/05/21 06:05:32;;;;;;;5.10;1.50;;;;;;;14.91;78.95;99989.87;3301592;85;98581;-78
2022/05/21 06:10:37;;;;;;;5.00;1.45;;;;;;;14.92;79.10;99994.20;3317084;87;98408;-75
2022/05/21 06:15:38;;;;;;;7.90;2.17;;;;;;;14.95;78.97;99985.87;3311095;86;98542;-79
2022/05/21 06:20:41;;;;;;;3.83;2.07;;;;;;;15.02;78.01;99999.62;3338047;85;99369;-78
2022/05/21 06:25:42;;;;;;;5.92;1.87;;;;;;;15.07;78.73;100011.62;3347869;86;98755;-79
2022/05/21 06:30:45;;;;;;;6.00;2.62;;;;;;;15.15;79.53;100017.24;3323499;85;99289;-80
2022/05/21 06:36:07;;;;;;;4.97;2.40;;;;;;;15.18;79.90;100017.02;3341324;86;98974;-80
2022/05/21 06:41:09;;;;;;;5.05;2.15;;;;;;;15.12;79.73;100021.45;3326265;86;98721;-77
2022/05/21 06:46:10;;;;;;;4.70;2.03;;;;;;;14.88;79.39;100012.27;3350534;85;99038;-76
2022/05/21 06:51:11;;;;;;;5.62;2.10;;;;;;;14.98;79.89;100043.83;3338206;85;98973;-76
2022/05/21 06:56:19;;;;;;;5.03;2.17;;;;;;;14.94;79.30;100046.63;3323722;86;99473;-76
2022/05/21 07:01:17;;;;;;;5.00;2.10;;;;;;;14.97;79.44;100050.55;3320973;85;99212;-78
2022/05/21 07:11:37;;;;;;;5.12;2.00;;;;;;;15.04;78.91;100058.17;3317675;85;99008;-75
2022/05/21 07:16:39;;;;;;;6.67;1.63;;;;;;;15.07;78.08;100061.52;3339986;85;98984;-76
2022/05/21 07:21:40;;;;;;;4.10;1.77;;;;;;;15.12;77.83;100074.91;3310972;85;99090;-76
2022/05/21 07:26:43;;;;;;;3.77;1.93;;;;;;;15.16;77.41;100087.34;3334650;85;98798;-77
2022/05/21 07:31:43;;;;;;;4.78;1.62;;;;;;;15.16;76.55;100081.17;3366120;86;98861;-78
2022/05/21 07:36:44;;;;;;;5.83;2.60;;;;;;;15.14;75.80;100093.30;3343501;86;99357;-77
2022/05/21 07:41:45;;;;;;;4.13;1.60;;;;;;;15.28;76.39;100126.39;3337582;85;99469;-77
2022/05/21 07:46:46;;;;;;;6.87;1.90;;;;;;;15.28;76.39;100126.39;3284491;86;29197;-77
2022/05/21 07:51:47;;;;;;;3.30;1.60;;;;;;;15.52;78.23;100119.75;3310476;85;99136;-78
2022/05/21 07:56:48;;;;;;;3.53;1.40;;;;;;;15.69;76.36;100139.52;3345398;84;98914;-79
2022/05/21 08:01:49;;;;;;;4.27;1.70;;;;;;;15.67;75.21;100130.04;3288563;86;98977;-77
2022/05/21 08:06:50;;;;;;;2.37;1.40;;;;;;;15.61;74.55;100147.77;3357974;86;98927;-77
2022/05/21 08:11:51;;;;;;;3.65;1.55;;;;;;;15.75;75.39;100146.78;3326790;86;99108;-76
2022/05/21 08:16:51;;;;;;;5.90;1.47;;;;;;;16.02;73.93;100143.41;3325869;86;30952;-76
2022/05/21 08:21:52;;;;;;;3.15;1.35;;;;;;;16.29;71.51;100156.03;3308296;86;99437;-77
2022/05/21 08:26:56;;;;;;;6.40;2.67;;;;;;;16.78;72.15;100154.44;3321037;85;98986;-78
2022/05/21 08:31:58;;;;;;;9.18;2.02;;;;;;;17.24;69.41;100148.76;3334308;86;99535;-77
2022/05/21 08:36:59;;;;;;;12.75;1.35;;;;;;;17.23;64.49;100176.40;3323719;86;99469;-77
2022/05/21 08:42:09;;;;;;;3.40;1.15;;;;;;;17.26;65.70;100183.87;3329336;85;99771;-75
2022/05/21 08:47:20;;;;;;;6.05;1.30;;;;;;;17.51;62.27;100188.36;3331629;86;32500;-78
2022/05/21 08:53:00;;;;;;;5.00;1.10;;;;;;;17.56;62.69;100211.52;3324250;86;99279;-78
2022/05/21 08:58:23;;;;;;;2.92;1.02;;;;;;;18.01;63.59;100215.30;3343633;86;99314;-78
2022/05/21 09:03:26;;;;;;;5.95;1.35;;;;;;;18.80;61.45;100213.19;3336357;84;99302;-79
2022/05/21 09:08:48;;;;;;;3.22;1.05;;;;;;;19.20;59.59;100229.88;3357212;86;99654;-78
2022/05/21 09:14:12;;;;;;;3.50;1.20;;;;;;;19.39;59.21;100228.97;3338603;86;99475;-77
2022/05/21 09:19:13;;;;;;;5.20;1.15;;;;;;;19.39;57.71;100239.33;3309782;86;99704;-77
2022/05/21 09:24:42;;;;;;;6.00;1.87;;;;;;;19.44;58.78;100246.57;3324267;86;99315;-78
2022/05/21 09:29:43;;;;;;;5.87;1.20;;;;;;;19.60;58.79;100252.70;3289430;87;99557;-77
2022/05/21 09:34:44;;;;;;;5.58;1.35;;;;;;;20.21;58.35;100249.13;3320138;85;98363;-77
2022/05/21 09:39:45;;;;;;;6.55;1.90;;;;;;;20.68;56.35;100259.78;3336322;85;99252;-77
2022/05/21 09:50:10;;;;;;;5.12;1.42;;;;;;;20.90;56.29;100267.66;3333113;86;99535;-77
2022/05/21 09:55:25;;;;;;;3.53;1.10;;;;;;;20.71;53.78;100272.25;3330971;85;100197;-77
2022/05/21 10:00:36;;;;;;;6.17;1.80;;;;;;;20.40;53.60;100275.47;3342772;85;99382;-78
2022/05/21 10:05:45;;;;;;;9.98;3.70;;;;;;;20.22;53.72;100273.81;3303725;86;98679;-79
2022/05/21 10:10:59;;;;;;;6.05;1.37;;;;;;;19.84;53.11;100277.75;3345292;86;99049;-77
2022/05/21 10:16:39;;;;;;;3.25;1.30;;;;;;;19.44;53.32;100284.25;3339202;85;98686;-79
2022/05/21 10:22:26;;;;;;;11.48;2.83;;;;;;;19.36;54.41;100270.93;3318973;86;99135;-76
2022/05/21 10:27:58;;;;;;;5.75;1.50;;;;;;;19.48;53.77;100282.75;3323671;86;98881;-77
2022/05/21 10:33:40;;;;;;;5.95;1.40;;;;;;;19.37;54.42;100280.86;3333176;85;98889;-77
2022/05/21 10:38:52;;;;;;;6.08;2.30;;;;;;;19.23;54.44;100279.86;3326628;85;99439;-77
2022/05/21 10:44:05;;;;;;;7.30;1.77;;;;;;;19.11;54.96;100295.88;3316207;85;98594;-77
2022/05/21 10:49:41;;;;;;;5.35;1.40;;;;;;;19.00;54.37;100298.15;3299494;85;98862;-77
2022/05/21 10:55:02;;;;;;;5.12;1.47;;;;;;;18.85;55.56;100287.20;3311369;85;99223;-77
2022/05/21 11:00:40;;;;;;;4.85;1.40;;;;;;;18.77;54.70;100302.51;3337176;85;98895;-78
2022/05/21 11:06:07;;;;;;;4.20;1.77;;;;;;;18.47;54.26;100295.88;3334569;86;33111;-77
2022/05/21 11:11:21;;;;;;;6.85;1.50;;;;;;;18.52;56.08;100299.55;3318246;85;98686;-77
2022/05/21 11:16:47;;;;;;;5.85;1.57;;;;;;;18.59;56.76;100299.37;3339051;86;99079;-78
2022/05/21 11:22:02;;;;;;;;;;;;;;;18.51;56.83;100301.53;3332815;85;99094;-78
2022/05/21 11:27:24;;;;;;;4.40;1.37;;;;;;;18.31;55.61;100301.38;3332887;85;84259;-78
2022/05/21 11:37:54;;;;;;;4.70;1.45;;;;;;;18.09;56.76;100306.62;3336776;85;98908;-78
2022/05/21 11:42:55;;;;;;;3.53;1.40;;;;;;;17.92;57.61;100303.60;3297420;86;99318;-79
2022/05/21 11:48:13;;;;;;;5.83;1.57;;;;;;;17.95;58.15;100305.54;3329253;86;32707;-78
2022/05/21 11:53:37;;;;;;;3.15;1.47;;;;;;;17.88;58.06;100307.68;3309957;86;99190;-78
2022/05/21 11:59:02;;;;;;;5.95;1.75;;;;;;;17.95;57.59;100300.56;3345610;85;98720;-79
2022/05/21 12:04:03;;;;;;;7.45;3.02;;;;;;;18.04;56.90;100300.78;3331593;86;98979;-78
2022/05/21 12:09:27;;;;;;;2.52;1.15;;;;;;;18.02;57.62;100311.55;3347483;85;98828;-78
2022/05/21 12:14:30;;;;;;;7.67;2.47;;;;;;;17.99;57.81;100316.60;3312983;86;99360;-78
2022/05/21 12:19:55;;;;;;;4.25;1.20;;;;;;;18.01;58.59;100315.55;3306385;85;99404;-78
2022/05/21 12:24:56;;;;;;;3.37;1.50;;;;;;;17.90;58.29;100320.56;3337053;85;99047;-77
2022/05/21 12:30:04;;;;;;;6.35;1.65;;;;;;;17.66;59.29;100356.64;3344347;86;32044;-78
2022/05/21 12:35:44;;;;;;;2.52;1.20;;;;;;;17.15;64.35;100384.33;3313383;86;98772;-75
2022/05/21 12:41:06;;;;;;;3.47;1.20;;;;;;;16.71;66.99;100388.78;3325156;86;104266;-75
2022/05/21 12:46:18;;;;;;;2.92;0.95;;;;;;;16.22;70.27;100387.23;3332045;85;98860;-75
2022/05/21 12:51:38;;;;;;;2.95;1.20;;;;;;;15.75;70.76;100359.83;3351502;85;99157;-76
2022/05/21 12:56:39;;;;;;;5.42;1.90;;;;;;;15.75;73.10;100354.27;3314830;86;98914;-80
2022/05/21 13:01:51;;;;;;;4.92;2.20;;;;;;;15.85;74.35;100356.15;3322623;85;98955;-77
2022/05/21 13:07:23;;;;;;;6.08;2.27;;;;;;;15.88;75.58;100355.33;3306205;86;99252;-76
2022/05/21 13:12:27;;;;;;;7.20;2.55;;;;;;;15.98;76.79;100345.30;3333048;86;98915;-77
2022/05/21 13:17:42;;;;;;;10.03;2.55;;;;;;;16.11;74.85;100346.31;3302453;86;32079;-79
2022/05/21 13:23:01;;;;;;;10.00;4.27;;;;;;;16.32;75.85;100336.32;3336332;86;99879;-77
2022/05/21 13:28:15;;;;;;;7.72;2.80;;;;;;;16.63;75.85;100324.77;3321373;85;98948;-79
2022/05/21 13:33:30;;;;;;;6.80;2.92;;;;;;;17.16;75.65;100310.80;3337496;85;99015;-77
2022/05/21 13:38:36;;;;;;;9.58;3.05;;;;;;;17.43;72.02;100317.72;3330313;86;99252;-78
2022/05/21 13:43:44;;;;;;;7.05;3.42;;;;;;;17.75;69.75;100317.87;3349259;85;99167;-79
2022/05/21 13:48:50;;;;;;;9.65;3.65;;;;;;;17.80;69.42;100311.80;3338397;86;98979;-79
2022/05/21 13:53:52;;;;;;;;;;;;;;;18.10;68.11;100306.02;3337744;86;98931;-79
2022/05/21 13:59:24;;;;;;;6.33;2.50;;;;;;;18.33;68.47;100288.63;3219530;89;84194;-77
2022/05/21 14:04:39;;;;;;;7.50;2.40;;;;;;;18.62;66.74;100283.95;3325720;85;98858;-79
2022/05/21 14:09:44;;;;;;;7.67;2.12;;;;;;;18.98;64.79;100268.52;3350412;85;99240;-78
2022/05/21 14:14:46;;;;;;;8.20;2.27;;;;;;;19.23;63.16;100258.31;3328509;86;98969;-77
2022/05/21 14:20:23;;;;;;;5.95;2.45;;;;;;;19.24;62.11;100273.05;3334400;85;99317;-77
2022/05/21 14:25:33;;;;;;;6.62;2.05;;;;;;;19.42;60.89;100264.37;3322345;86;99256;-77
2022/05/21 14:30:41;;;;;;;5.05;2.33;;;;;;;19.38;58.66;100261.49;3314160;86;99314;-77
2022/05/21 14:35:43;;;;;;;5.95;2.17;;;;;;;19.24;56.28;100267.48;3343827;86;32537;-78
2022/05/21 14:40:58;;;;;;;4.08;2.05;;;;;;;19.20;56.26;100257.78;3332432;85;99077;-78
2022/05/21 14:46:00;;;;;;;5.08;2.02;;;;;;;19.26;55.32;100259.44;3341071;85;98730;-80
2022/05/21 14:56:29;;;;;;;8.35;2.40;;;;;;;19.42;55.42;100268.56;3332443;86;98907;-78
2022/05/21 15:01:30;;;;;;;6.45;3.17;;;;;;;19.41;54.13;100282.33;3308708;86;99285;-76
2022/05/21 15:06:35;;;;;;;8.55;1.60;;;;;;;19.27;53.42;100277.74;3330209;85;98916;-81
2022/05/21 15:11:36;;;;;;;5.58;1.00;;;;;;;18.85;54.89;100348.54;3280431;87;98816;-77
2022/05/21 15:16:37;;;;;;;2.65;0.78;;;;;;;17.94;58.65;100349.89;3362725;85;99227;-80
2022/05/21 15:21:44;;;;;;;1.62;0.78;;;;;;;17.15;61.71;100357.91;3340160;86;99021;-78
2022/05/21 15:26:45;;;;;;;4.00;1.00;;;;;;;16.68;66.54;100368.00;3366326;85;98825;-78
2022/05/21 15:31:47;;;;;;;2.40;0.90;;;;;;;16.36;68.49;100355.89;3354923;85;98811;-77
2022/05/21 15:36:49;;;;;;;4.58;1.05;;;;;;;16.21;69.53;100353.72;3318154;86;98987;-77
2022/05/21 15:41:50;;;;;;;5.53;1.72;;;;;;;16.17;71.17;100353.78;3334877;86;98883;-77
2022/05/21 15:46:51;;;;;;;4.05;1.62;;;;;;;16.11;71.85;100346.31;3329277;86;98644;-77
2022/05/21 15:51:51;;;;;;;4.62;2.05;;;;;;;16.08;72.92;100333.28;3334915;86;99125;-77
2022/05/21 15:56:53;;;;;;;6.12;2.42;;;;;;;16.14;73.71;100320.50;3366041;85;99309;-78
2022/05/21 16:01:54;;;;;;;5.85;2.55;;;;;;;16.11;73.64;100327.67;3331046;85;99178;-78
2022/05/21 16:06:55;;;;;;;8.75;3.10;;;;;;;15.95;74.42;100325.30;3330005;86;98846;-78
2022/05/21 16:11:56;;;;;;;6.97;3.40;;;;;;;15.94;75.08;100319.56;3355357;85;98625;-80
2022/05/21 16:16:57;;;;;;;4.83;2.50;;;;;;;15.94;75.53;100316.79;3332591;85;98757;-79
2022/05/21 16:22:03;;;;;;;5.42;2.80;;;;;;;15.86;75.37;100301.44;3332382;86;99035;-78
2022/05/21 16:27:10;;;;;;;3.05;2.30;;;;;;;15.78;76.09;100301.33;3332277;86;98856;-77
2022/05/21 16:32:14;;;;;;;4.85;2.67;;;;;;;15.78;77.72;100301.33;3350012;85;99226;-78
2022/05/21 16:37:17;;;;;;;6.72;3.20;;;;;;;15.77;76.56;100307.49;3347179;86;98836;-79
2022/05/21 16:42:21;;;;;;;6.40;3.15;;;;;;;15.76;76.44;100305.89;3355373;85;99028;-79
2022/05/21 16:47:24;;;;;;;8.95;3.92;;;;;;;15.72;76.78;100298.23;3334096;85;98598;-78
2022/05/21 16:52:25;;;;;;;6.12;3.87;;;;;;;15.72;76.65;100287.14;3346152;85;98926;-79
2022/05/21 16:57:26;;;;;;;7.30;3.47;;;;;;;15.70;77.05;100281.81;3350122;86;98790;-78
2022/05/21 17:02:27;;;;;;;6.72;3.67;;;;;;;15.66;77.14;100290.77;3319130;86;98823;-78
2022/05/21 17:07:28;;;;;;;9.10;4.17;;;;;;;15.62;78.48;100281.11;3336152;86;98884;-78
2022/05/21 17:12:29;;;;;;;11.80;4.00;;;;;;;15.59;77.95;100292.25;3341053;86;98775;-78
2022/05/21 17:17:31;;;;;;;6.78;3.77;;;;;;;15.52;78.21;100290.92;3340873;86;29848;-77
2022/05/21 17:22:33;;;;;;;7.37;4.72;;;;;;;15.44;78.97;100288.85;3354373;86;99251;-77
2022/05/21 17:32:59;;;;;;;5.83;3.37;;;;;;;15.37;80.19;100288.91;3349976;85;99275;-76
2022/05/21 17:38:01;;;;;;;8.63;3.33;;;;;;;15.32;80.13;100292.70;3360719;85;99166;-77
2022/05/21 17:43:01;;;;;;;5.60;2.83;;;;;;;15.28;80.19;100291.37;3334695;86;98992;-77
2022/05/21 17:48:03;;;;;;;5.50;3.10;;;;;;;15.25;80.22;100289.98;3353382;86;30907;-79
2022/05/21 17:53:04;;;;;;;3.80;2.43;;;;;;;15.19;80.21;100293.02;3336292;86;99422;-78
2022/05/21 17:58:05;;;;;;;7.57;3.10;;;;;;;15.12;80.12;100298.64;3341627;86;98758;-76
2022/05/21 18:03:07;;;;;;;5.17;3.00;;;;;;;15.04;80.61;100297.15;3347239;86;98915;-77
2022/05/21 18:08:09;;;;;;;7.85;2.58;;;;;;;14.97;80.69;100293.83;3358627;85;99380;-77
2022/05/21 18:13:11;;;;;;;10.00;3.47;;;;;;;14.93;80.01;100303.38;3323397;86;98916;-77
2022/05/21 18:23:33;;;;;;;4.85;2.40;;;;;;;14.85;80.19;100308.19;3335604;86;98942;-77
2022/05/21 18:28:33;;;;;;;7.93;1.90;;;;;;;14.81;80.79;100311.58;3327034;86;99058;-76
2022/05/21 18:33:35;;;;;;;6.70;2.40;;;;;;;14.72;81.75;100316.78;3340384;86;98937;-78
2022/05/21 18:38:37;;;;;;;6.53;2.27;;;;;;;14.59;81.47;100299.67;3326971;86;98793;-78
2022/05/21 18:43:39;;;;;;;4.87;1.77;;;;;;;14.60;81.19;100316.51;3330551;86;99244;-76
2022/05/21 18:48:40;;;;;;;4.72;1.90;;;;;;;14.56;81.28;100317.89;3347304;86;99177;-76
2022/05/21 18:53:41;;;;;;;4.50;1.57;;;;;;;14.55;81.42;100330.16;3344876;86;98946;-77
2022/05/21 18:58:45;;;;;;;4.10;1.65;;;;;;;14.53;81.32;100333.15;3334984;86;99107;-77
2022/05/21 19:03:45;;;;;;;6.78;2.60;;;;;;;14.46;81.34;100333.20;3339961;86;99291;-77
2022/05/21 19:08:47;;;;;;;6.80;1.82;;;;;;;14.53;81.16;100351.15;3355031;86;99259;-77
2022/05/21 19:13:48;;;;;;;2.85;1.57;;;;;;;14.46;80.99;100352.00;3334898;86;99359;-77
2022/05/21 19:24:14;;;;;;;3.37;1.30;;;;;;;14.39;79.77;100368.63;3324121;86;98651;-78
2022/05/21 19:29:16;;;;;;;3.58;1.40;;;;;;;14.35;79.50;100372.63;3343323;86;99098;-78
2022/05/21 19:34:18;;;;;;;5.03;1.22;;;;;;;14.31;79.05;100367.11;3328498;85;99281;-78
2022/05/21 19:44:44;;;;;;;4.40;1.55;;;;;;;14.21;78.50;100373.48;3328165;86;98902;-77
2022/05/21 19:49:47;;;;;;;6.17;1.45;;;;;;;14.14;78.52;100373.48;3353859;86;98972;-77
2022/05/21 19:54:48;;;;;;;4.50;1.17;;;;;;;14.06;78.77;100378.84;3331045;85;99154;-77
2022/05/21 19:59:49;;;;;;;5.13;1.60;;;;;;;14.00;78.87;100388.75;3359615;86;30247;-78
2022/05/21 20:04:51;;;;;;;3.73;1.33;;;;;;;13.95;79.43;100389.16;3325253;86;99061;-78
2022/05/21 20:09:51;;;;;;;5.30;1.50;;;;;;;13.88;80.46;100389.77;3337734;87;99170;-77
2022/05/21 20:14:52;;;;;;;7.20;1.80;;;;;;;13.80;81.41;100391.77;3336368;86;98857;-77
2022/05/21 20:19:54;;;;;;;10.13;1.63;;;;;;;13.74;81.87;100393.97;3351550;86;99185;-77
2022/05/21 20:24:55;;;;;;;7.47;1.60;;;;;;;13.71;82.53;100387.27;3349183;86;99009;-76
2022/05/21 20:29:56;;;;;;;5.00;1.53;;;;;;;13.68;82.22;100395.57;3342483;86;27790;-77
2022/05/21 20:34:57;;;;;;;6.70;1.57;;;;;;;13.61;82.40;100392.22;3344664;86;98506;-76
2022/05/21 20:40:01;;;;;;;8.93;1.87;;;;;;;13.61;82.42;100392.22;3348733;86;99505;-77
2022/05/21 20:45:01;;;;;;;9.57;1.60;;;;;;;13.60;82.57;100396.76;3322412;86;98934;-77
2022/05/21 20:50:02;;;;;;;8.20;1.83;;;;;;;13.59;82.49;100391.84;3303760;87;98919;-77
2022/05/21 20:55:05;;;;;;;6.77;1.83;;;;;;;13.57;82.62;100401.11;3338933;86;99272;-77
2022/05/21 21:00:09;;;;;;;6.40;1.77;;;;;;;13.56;82.59;100406.45;3354492;85;32049;-77
2022/05/21 21:05:10;;;;;;;7.78;1.42;;;;;;;13.55;82.95;100411.78;3360753;85;99200;-77
2022/05/21 21:10:14;;;;;;;7.53;1.87;;;;;;;13.54;82.81;100412.97;3353656;86;99159;-77
2022/05/21 21:15:18;;;;;;;5.30;1.57;;;;;;;13.52;82.98;100409.03;3342133;85;99295;-76
2022/05/21 21:20:19;;;;;;;5.70;1.70;;;;;;;13.51;83.36;100416.52;3340617;86;99244;-77
2022/05/21 21:25:20;;;;;;;7.93;2.20;;;;;;;13.50;83.60;100413.56;3349545;85;99352;-77
2022/05/21 21:30:25;;;;;;;6.30;1.70;;;;;;;13.48;83.63;100406.27;3353448;85;30440;-77
2022/05/21 21:35:26;;;;;;;7.25;1.90;;;;;;;13.47;83.89;100407.43;3344738;86;98964;-76
2022/05/21 21:40:27;;;;;;;4.60;1.63;;;;;;;13.46;84.02;100399.56;3354205;85;98745;-77
2022/05/21 21:45:28;;;;;;;4.57;1.90;;;;;;;13.46;84.10;100407.85;3340520;85;99214;-77
2022/05/21 21:50:30;;;;;;;7.73;1.73;;;;;;;13.44;84.35;100409.63;3356877;85;99278;-76
2022/05/21 21:55:31;;;;;;;3.43;1.60;;;;;;;13.43;84.43;100412.78;3317953;86;98899;-76
2022/05/21 22:06:14;;;;;;;7.97;1.73;;;;;;;13.37;85.04;100407.45;3344946;85;30743;-77
2022/05/21 22:11:17;;;;;;;9.03;2.08;;;;;;;13.25;85.32;100395.42;3330722;86;98814;-77
2022/05/21 22:16:18;;;;;;;3.85;1.87;;;;;;;13.26;85.90;100401.14;3364515;86;99200;-77
2022/05/21 22:21:21;;;;;;;8.17;2.63;;;;;;;13.22;85.16;100400.34;3356093;85;99240;-78
2022/05/21 22:26:22;;;;;;;6.87;2.17;;;;;;;13.18;85.30;100392.06;3330313;85;99001;-77
2022/05/21 22:31:23;;;;;;;6.87;2.08;;;;;;;13.16;85.53;100393.05;3332653;86;98916;-77
2022/05/21 22:36:24;;;;;;;5.40;2.07;;;;;;;13.09;85.72;100389.50;3338628;85;28110;-77
2022/05/21 22:41:25;;;;;;;8.33;2.67;;;;;;;13.04;85.98;100391.27;3343010;86;99110;-77
2022/05/21 22:46:27;;;;;;;6.50;1.90;;;;;;;12.96;86.16;100393.23;3335639;86;99190;-77
2022/05/21 22:51:32;;;;;;;4.77;2.40;;;;;;;12.92;85.94;100388.88;3314841;85;99199;-78
2022/05/21 22:56:47;;;;;;;;;;;;;;;;;;;;;
2022/05/21 23:01:40;;;;;;;8.83;3.00;;;;;;;12.79;86.93;100389.84;3346462;85;98978;-78
2022/05/21 23:06:42;;;;;;;9.80;3.70;;;;;;;12.73;87.84;100396.13;3336986;86;28047;-78
2022/05/21 23:11:44;;;;;;;11.53;3.60;;;;;;;12.62;88.85;100398.88;3341719;86;99274;-77
2022/05/21 23:27:25;;;;;;;8.43;3.25;;;;;;;12.51;89.88;100389.78;3347508;86;98873;-78
2022/05/21 23:32:26;;;;;;;9.73;4.07;;;;;;;12.50;90.09;100401.20;3355915;85;98849;-78
2022/05/21 23:37:28;;;;;;;9.33;4.58;;;;;;;12.44;90.71;100382.07;3331476;84;99262;-78
2022/05/21 23:42:29;;;;;;;9.17;3.83;;;;;;;12.46;90.78;100391.54;3348678;86;98571;-78
2022/05/21 23:47:30;;;;;;;10.87;3.90;;;;;;;12.45;91.09;100390.55;3344680;85;99123;-79
2022/05/21 23:52:32;;;;;;;9.60;3.73;;;;;;;12.39;91.58;100390.73;3340116;86;99250;-79
2022/05/21 23:57:34;;;;;;;7.93;3.23;;;;;;;12.31;92.36;100388.53;3344326;85;98885;-78
